首页
METAR-TAF:

METAR-TAF

机场 :

昂古莱姆, 法国

纬度: 45-43-46N, 经度: 00-13-08E, 海拔: 132米

当前天气观测

该预报发布于20分钟前的04:00 UTC
风速6节,风向
温度 7°C
湿度 93%
气压 1021 hPa
能见度10公里或以上
1500米以下无云,无积雨云

METAR: LFBU 220400Z AUTO 01006KT CAVOK 07/06 Q1021

时间: 06:20 (04:20 UTC)

预报

该预报发布于11小时和20分钟前的17:00 UTC
预报有效从21日的 18点(UTC)到 22日的 18点(UTC)
风速5节,风向
能见度10公里或以上
多云层高于3000英尺
几率 40%
从 21日的 22点(UTC)到 22日的 10点(UTC)
能見度: 3000
轻雾
几率 30%
从 22日的 02点(UTC)到 22日的 08点(UTC)
能見度: 0500
短暂存在
从 22日的 10点(UTC)到 22日的 12点(UTC)
多云层高于800英尺
几率 40%
从 22日的 12点(UTC)到 22日的 18点(UTC)
风速15节,风向东北
能見度: 4000
阴天层高于1000英尺
小雨

TAF: LFBU 211700Z 2118/2218 10005KT 9999 BKN030 PROB40 2122/2210 3000 BR PROB30 2202/2208 0500 FG VV/// TEMPO 2210/2212 BKN008 PROB40 2212/2218 04015KT 4000 -RA OVC010

超过4000个机场的气象观测和天气预报(METAR&TAF报告)。

可查询的气象台以黄色和红色小点在地图上表示。

将鼠标移到小点上方,可查看气象台名称。

然后点击查看天气观测和预报。

如需切换地图:点击带黑十字的绿色按钮放大地图;点击带横线的绿色按钮缩小地图;或者点击绿色箭头查看邻近地区的地图。


METAR-TAF: